sensor_id;sensor_type;location;lat;lon;timestamp;pressure;altitude;pressure_sealevel;temperature;humidity
72428;BME280;60419;48.880;18.036;2023-04-28T00:00:20;99555.41;;;5.21;58.13
72428;BME280;60419;48.880;18.036;2023-04-28T00:03:06;99554.69;;;5.36;57.33
72428;BME280;60419;48.880;18.036;2023-04-28T00:05:51;99545.28;;;5.28;58.04
72428;BME280;60419;48.880;18.036;2023-04-28T00:08:37;99558.22;;;4.45;60.70
72428;BME280;60419;48.880;18.036;2023-04-28T00:11:22;99553.97;;;5.08;59.09
72428;BME280;60419;48.880;18.036;2023-04-28T00:14:08;99551.09;;;5.20;58.84
72428;BME280;60419;48.880;18.036;2023-04-28T00:16:53;99547.34;;;4.89;59.90
72428;BME280;60419;48.880;18.036;2023-04-28T00:19:40;99544.78;;;4.99;59.95
72428;BME280;60419;48.880;18.036;2023-04-28T00:22:26;99546.22;;;5.12;58.60
72428;BME280;60419;48.880;18.036;2023-04-28T00:25:11;99549.59;;;4.70;59.11
72428;BME280;60419;48.880;18.036;2023-04-28T00:27:57;99556.78;;;4.37;59.73
72428;BME280;60419;48.880;18.036;2023-04-28T00:30:42;99564.28;;;4.13;60.85
72428;BME280;60419;48.880;18.036;2023-04-28T00:33:28;99556.94;;;4.25;60.50
72428;BME280;60419;48.880;18.036;2023-04-28T00:36:13;99551.13;;;4.34;59.97
72428;BME280;60419;48.880;18.036;2023-04-28T00:38:58;99563.69;;;4.60;59.75
72428;BME280;60419;48.880;18.036;2023-04-28T00:41:44;99549.81;;;4.63;59.31
72428;BME280;60419;48.880;18.036;2023-04-28T00:44:29;99549.09;;;5.00;58.24
72428;BME280;60419;48.880;18.036;2023-04-28T00:47:16;99547.63;;;5.20;57.98
72428;BME280;60419;48.880;18.036;2023-04-28T00:50:03;99550.84;;;5.22;57.87
72428;BME280;60419;48.880;18.036;2023-04-28T00:52:51;99556.19;;;4.30;61.25
72428;BME280;60419;48.880;18.036;2023-04-28T00:55:37;99557.66;;;4.43;60.95
72428;BME280;60419;48.880;18.036;2023-04-28T00:58:23;99562.97;;;4.70;59.38
72428;BME280;60419;48.880;18.036;2023-04-28T01:01:09;99550.16;;;4.72;59.22
72428;BME280;60419;48.880;18.036;2023-04-28T01:03:55;99555.94;;;4.59;59.78
72428;BME280;60419;48.880;18.036;2023-04-28T01:06:40;99565.75;;;4.80;59.19
72428;BME280;60419;48.880;18.036;2023-04-28T01:09:26;99566.88;;;4.84;58.75
72428;BME280;60419;48.880;18.036;2023-04-28T01:12:12;99560.50;;;4.36;60.55
72428;BME280;60419;48.880;18.036;2023-04-28T01:14:58;99564.78;;;4.10;61.59
72428;BME280;60419;48.880;18.036;2023-04-28T01:17:44;99535.03;;;4.29;60.64
72428;BME280;60419;48.880;18.036;2023-04-28T01:20:30;99555.50;;;4.72;59.44
72428;BME280;60419;48.880;18.036;2023-04-28T01:23:16;99552.63;;;4.79;59.52
72428;BME280;60419;48.880;18.036;2023-04-28T01:26:01;99555.28;;;4.74;59.73
72428;BME280;60419;48.880;18.036;2023-04-28T01:28:47;99557.75;;;4.85;59.05
72428;BME280;60419;48.880;18.036;2023-04-28T01:31:32;99567.84;;;4.46;60.82
72428;BME280;60419;48.880;18.036;2023-04-28T01:34:18;99563.50;;;4.40;60.14
72428;BME280;60419;48.880;18.036;2023-04-28T01:37:03;99560.53;;;4.63;59.52
72428;BME280;60419;48.880;18.036;2023-04-28T01:39:49;99558.69;;;4.15;60.50
72428;BME280;60419;48.880;18.036;2023-04-28T01:42:34;99563.38;;;3.64;62.50
72428;BME280;60419;48.880;18.036;2023-04-28T01:45:20;99566.22;;;3.96;62.29
72428;BME280;60419;48.880;18.036;2023-04-28T01:48:05;99563.84;;;4.21;61.13
72428;BME280;60419;48.880;18.036;2023-04-28T01:50:51;99576.25;;;4.33;60.55
72428;BME280;60419;48.880;18.036;2023-04-28T01:53:36;99576.09;;;4.17;60.76
72428;BME280;60419;48.880;18.036;2023-04-28T01:56:21;99566.41;;;3.89;61.38
72428;BME280;60419;48.880;18.036;2023-04-28T01:59:07;99567.28;;;3.56;62.27
72428;BME280;60419;48.880;18.036;2023-04-28T02:01:52;99565.16;;;3.75;62.41
72428;BME280;60419;48.880;18.036;2023-04-28T02:04:38;99558.75;;;3.98;61.53
72428;BME280;60419;48.880;18.036;2023-04-28T02:07:23;99566.13;;;3.69;62.23
72428;BME280;60419;48.880;18.036;2023-04-28T02:10:09;99566.91;;;3.64;62.67
72428;BME280;60419;48.880;18.036;2023-04-28T02:12:54;99577.88;;;3.29;63.27
72428;BME280;60419;48.880;18.036;2023-04-28T02:15:40;99569.97;;;3.56;62.67
72428;BME280;60419;48.880;18.036;2023-04-28T02:18:26;99573.31;;;3.46;63.33
72428;BME280;60419;48.880;18.036;2023-04-28T02:21:12;99564.69;;;3.61;61.98
72428;BME280;60419;48.880;18.036;2023-04-28T02:23:57;99573.28;;;3.07;63.98
72428;BME280;60419;48.880;18.036;2023-04-28T02:26:43;99571.84;;;3.55;63.08
72428;BME280;60419;48.880;18.036;2023-04-28T02:29:28;99572.56;;;3.51;63.07
72428;BME280;60419;48.880;18.036;2023-04-28T02:32:14;99565.75;;;3.82;61.41
72428;BME280;60419;48.880;18.036;2023-04-28T02:34:59;99568.88;;;3.74;61.74
72428;BME280;60419;48.880;18.036;2023-04-28T02:37:45;99563.03;;;3.77;61.68
72428;BME280;60419;48.880;18.036;2023-04-28T02:40:30;99563.66;;;3.84;61.50
72428;BME280;60419;48.880;18.036;2023-04-28T02:43:16;99568.09;;;3.95;61.24
72428;BME280;60419;48.880;18.036;2023-04-28T02:46:02;99566.66;;;4.10;60.30
72428;BME280;60419;48.880;18.036;2023-04-28T02:48:47;99567.03;;;3.96;60.90
72428;BME280;60419;48.880;18.036;2023-04-28T02:51:33;99568.00;;;4.12;60.22
72428;BME280;60419;48.880;18.036;2023-04-28T02:54:18;99556.00;;;4.15;60.34
72428;BME280;60419;48.880;18.036;2023-04-28T02:57:11;99552.53;;;4.14;60.08
72428;BME280;60419;48.880;18.036;2023-04-28T02:59:56;99553.34;;;4.15;59.89
72428;BME280;60419;48.880;18.036;2023-04-28T03:02:42;99549.13;;;3.97;60.56
72428;BME280;60419;48.880;18.036;2023-04-28T03:05:27;99564.09;;;3.76;61.72
72428;BME280;60419;48.880;18.036;2023-04-28T03:08:13;99558.19;;;3.35;63.41
72428;BME280;60419;48.880;18.036;2023-04-28T03:10:58;99560.63;;;3.36;63.07
72428;BME280;60419;48.880;18.036;2023-04-28T03:13:43;99566.41;;;3.67;62.35
72428;BME280;60419;48.880;18.036;2023-04-28T03:16:29;99535.09;;;2.90;63.66
72428;BME280;60419;48.880;18.036;2023-04-28T03:19:14;99551.66;;;2.75;64.87
72428;BME280;60419;48.880;18.036;2023-04-28T03:22:00;99561.34;;;2.64;65.16
72428;BME280;60419;48.880;18.036;2023-04-28T03:24:45;99568.63;;;2.52;65.88
72428;BME280;60419;48.880;18.036;2023-04-28T03:27:30;99573.41;;;2.38;66.67
72428;BME280;60419;48.880;18.036;2023-04-28T03:30:16;99574.38;;;2.32;66.78
72428;BME280;60419;48.880;18.036;2023-04-28T03:33:01;99568.94;;;2.72;66.06
72428;BME280;60419;48.880;18.036;2023-04-28T03:35:47;99557.56;;;2.77;65.41
72428;BME280;60419;48.880;18.036;2023-04-28T03:38:32;99559.44;;;3.10;64.52
72428;BME280;60419;48.880;18.036;2023-04-28T03:41:17;99556.00;;;2.47;66.24
72428;BME280;60419;48.880;18.036;2023-04-28T03:44:03;99564.41;;;2.56;66.36
72428;BME280;60419;48.880;18.036;2023-04-28T03:46:49;99539.66;;;2.44;66.11
72428;BME280;60419;48.880;18.036;2023-04-28T03:49:34;99557.41;;;2.84;65.47
72428;BME280;60419;48.880;18.036;2023-04-28T03:52:19;99552.00;;;2.79;65.16
72428;BME280;60419;48.880;18.036;2023-04-28T03:55:05;99540.59;;;2.83;64.77
72428;BME280;60419;48.880;18.036;2023-04-28T03:57:51;99516.34;;;3.02;63.80
72428;BME280;60419;48.880;18.036;2023-04-28T04:00:36;99553.59;;;2.80;64.58
72428;BME280;60419;48.880;18.036;2023-04-28T04:03:22;99545.84;;;2.33;65.93
72428;BME280;60419;48.880;18.036;2023-04-28T04:06:10;99553.75;;;2.27;66.86
72428;BME280;60419;48.880;18.036;2023-04-28T04:08:56;99559.66;;;1.89;68.05
72428;BME280;60419;48.880;18.036;2023-04-28T04:11:41;99560.56;;;2.35;67.39
72428;BME280;60419;48.880;18.036;2023-04-28T04:14:26;99567.34;;;2.71;66.46
72428;BME280;60419;48.880;18.036;2023-04-28T04:17:12;99567.47;;;2.65;65.11
72428;BME280;60419;48.880;18.036;2023-04-28T04:19:57;99573.09;;;2.97;64.93
72428;BME280;60419;48.880;18.036;2023-04-28T04:22:42;99568.25;;;3.11;63.71
72428;BME280;60419;48.880;18.036;2023-04-28T04:25:28;99567.97;;;3.46;62.33
72428;BME280;60419;48.880;18.036;2023-04-28T04:28:14;99570.09;;;3.66;62.16
72428;BME280;60419;48.880;18.036;2023-04-28T04:31:00;99565.50;;;2.89;64.16
72428;BME280;60419;48.880;18.036;2023-04-28T04:33:47;99581.94;;;3.53;62.53
72428;BME280;60419;48.880;18.036;2023-04-28T04:36:32;99580.53;;;2.78;64.88
72428;BME280;60419;48.880;18.036;2023-04-28T04:39:18;99574.06;;;3.08;64.63
72428;BME280;60419;48.880;18.036;2023-04-28T04:42:03;99571.09;;;3.04;65.29
72428;BME280;60419;48.880;18.036;2023-04-28T04:44:48;99574.47;;;3.16;65.51
72428;BME280;60419;48.880;18.036;2023-04-28T04:47:34;99579.19;;;3.65;64.93
72428;BME280;60419;48.880;18.036;2023-04-28T04:50:19;99578.16;;;3.88;63.08
72428;BME280;60419;48.880;18.036;2023-04-28T04:53:05;99551.72;;;4.14;61.17
72428;BME280;60419;48.880;18.036;2023-04-28T04:55:50;99582.66;;;4.32;62.37
72428;BME280;60419;48.880;18.036;2023-04-28T04:58:36;99578.31;;;4.25;61.06
72428;BME280;60419;48.880;18.036;2023-04-28T05:01:22;99580.69;;;4.00;62.44
72428;BME280;60419;48.880;18.036;2023-04-28T05:04:07;99582.59;;;4.48;62.10
72428;BME280;60419;48.880;18.036;2023-04-28T05:06:52;99587.13;;;4.48;60.77
72428;BME280;60419;48.880;18.036;2023-04-28T05:09:38;99579.88;;;4.76;59.43
72428;BME280;60419;48.880;18.036;2023-04-28T05:12:23;99578.59;;;4.24;62.13
72428;BME280;60419;48.880;18.036;2023-04-28T05:15:09;99575.34;;;4.49;60.31
72428;BME280;60419;48.880;18.036;2023-04-28T05:17:55;99579.84;;;4.43;61.12
72428;BME280;60419;48.880;18.036;2023-04-28T05:20:41;99581.47;;;4.44;61.22
72428;BME280;60419;48.880;18.036;2023-04-28T05:23:26;99583.53;;;5.24;60.31
72428;BME280;60419;48.880;18.036;2023-04-28T05:26:12;99577.31;;;5.13;60.05
72428;BME280;60419;48.880;18.036;2023-04-28T05:28:57;99579.34;;;5.01;57.65
72428;BME280;60419;48.880;18.036;2023-04-28T05:31:43;99483.31;;;4.18;57.49
72428;BME280;60419;48.880;18.036;2023-04-28T05:34:28;99555.09;;;4.31;59.39
72428;BME280;60419;48.880;18.036;2023-04-28T05:37:13;99569.47;;;4.74;58.83
72428;BME280;60419;48.880;18.036;2023-04-28T05:39:59;99552.78;;;3.91;60.08
72428;BME280;60419;48.880;18.036;2023-04-28T05:42:44;99568.31;;;3.72;61.65
72428;BME280;60419;48.880;18.036;2023-04-28T05:45:29;99561.63;;;4.40;59.93
72428;BME280;60419;48.880;18.036;2023-04-28T05:48:15;99561.75;;;4.51;60.74
72428;BME280;60419;48.880;18.036;2023-04-28T05:51:00;99555.13;;;4.58;59.17
72428;BME280;60419;48.880;18.036;2023-04-28T05:53:46;99562.88;;;5.19;58.93
72428;BME280;60419;48.880;18.036;2023-04-28T05:56:32;99566.09;;;4.89;59.16
72428;BME280;60419;48.880;18.036;2023-04-28T05:59:18;99566.41;;;4.92;58.33
72428;BME280;60419;48.880;18.036;2023-04-28T06:02:04;99554.06;;;4.59;59.54
72428;BME280;60419;48.880;18.036;2023-04-28T06:04:49;99562.28;;;4.80;58.35
72428;BME280;60419;48.880;18.036;2023-04-28T06:07:34;99549.66;;;4.21;60.77
72428;BME280;60419;48.880;18.036;2023-04-28T06:10:21;99550.13;;;3.91;61.59
72428;BME280;60419;48.880;18.036;2023-04-28T06:13:07;99556.00;;;4.15;60.80
72428;BME280;60419;48.880;18.036;2023-04-28T06:15:53;99557.81;;;4.09;61.31
72428;BME280;60419;48.880;18.036;2023-04-28T06:18:39;99545.84;;;4.98;58.49
72428;BME280;60419;48.880;18.036;2023-04-28T06:21:24;99541.09;;;5.05;60.31
72428;BME280;60419;48.880;18.036;2023-04-28T06:24:11;99538.00;;;4.91;58.60
72428;BME280;60419;48.880;18.036;2023-04-28T06:26:56;99530.16;;;5.54;56.64
72428;BME280;60419;48.880;18.036;2023-04-28T06:29:42;99528.25;;;5.50;57.39
72428;BME280;60419;48.880;18.036;2023-04-28T06:32:27;99537.38;;;4.79;59.32
72428;BME280;60419;48.880;18.036;2023-04-28T06:35:13;99523.50;;;5.67;57.18
72428;BME280;60419;48.880;18.036;2023-04-28T06:37:59;99523.16;;;5.53;57.62
72428;BME280;60419;48.880;18.036;2023-04-28T06:40:45;99532.47;;;5.41;57.80
72428;BME280;60419;48.880;18.036;2023-04-28T06:43:31;99540.41;;;6.46;54.86
72428;BME280;60419;48.880;18.036;2023-04-28T06:46:17;99528.59;;;6.52;55.01
72428;BME280;60419;48.880;18.036;2023-04-28T06:49:02;99526.19;;;6.86;53.97
72428;BME280;60419;48.880;18.036;2023-04-28T06:51:48;99520.53;;;7.08;53.32
72428;BME280;60419;48.880;18.036;2023-04-28T06:54:33;99526.72;;;7.40;52.86
72428;BME280;60419;48.880;18.036;2023-04-28T06:57:19;99519.03;;;7.77;51.97
72428;BME280;60419;48.880;18.036;2023-04-28T07:00:05;99522.41;;;7.03;53.35
72428;BME280;60419;48.880;18.036;2023-04-28T07:02:52;99515.16;;;8.04;54.01
72428;BME280;60419;48.880;18.036;2023-04-28T07:05:37;99523.03;;;7.90;52.44
72428;BME280;60419;48.880;18.036;2023-04-28T07:08:23;99516.84;;;7.90;51.21
72428;BME280;60419;48.880;18.036;2023-04-28T07:11:08;99507.44;;;8.37;50.58
72428;BME280;60419;48.880;18.036;2023-04-28T07:13:54;99511.63;;;8.53;50.02
72428;BME280;60419;48.880;18.036;2023-04-28T07:16:39;99504.91;;;8.85;49.26
72428;BME280;60419;48.880;18.036;2023-04-28T07:19:25;99497.41;;;8.48;49.98
72428;BME280;60419;48.880;18.036;2023-04-28T07:22:10;99505.44;;;8.87;48.63
72428;BME280;60419;48.880;18.036;2023-04-28T07:24:55;99488.56;;;9.83;47.89
72428;BME280;60419;48.880;18.036;2023-04-28T07:27:41;99491.88;;;10.17;46.60
72428;BME280;60419;48.880;18.036;2023-04-28T07:30:26;99491.66;;;9.95;46.84
72428;BME280;60419;48.880;18.036;2023-04-28T07:33:12;99485.06;;;10.39;57.81
72428;BME280;60419;48.880;18.036;2023-04-28T07:35:57;99470.50;;;10.92;45.25
72428;BME280;60419;48.880;18.036;2023-04-28T07:38:43;99467.72;;;10.78;44.63
72428;BME280;60419;48.880;18.036;2023-04-28T07:41:28;99468.78;;;10.63;44.57
72428;BME280;60419;48.880;18.036;2023-04-28T07:44:14;99460.53;;;10.54;45.31
72428;BME280;60419;48.880;18.036;2023-04-28T07:47:00;99446.38;;;10.95;44.23
72428;BME280;60419;48.880;18.036;2023-04-28T07:49:46;99441.09;;;10.85;44.03
72428;BME280;60419;48.880;18.036;2023-04-28T07:52:31;99433.78;;;10.72;44.58
72428;BME280;60419;48.880;18.036;2023-04-28T07:55:17;99456.63;;;11.12;43.50
72428;BME280;60419;48.880;18.036;2023-04-28T07:58:03;99448.59;;;11.21;41.26
72428;BME280;60419;48.880;18.036;2023-04-28T08:00:48;99444.38;;;11.56;42.40
72428;BME280;60419;48.880;18.036;2023-04-28T08:03:33;99448.78;;;11.11;41.96
72428;BME280;60419;48.880;18.036;2023-04-28T08:06:19;99450.50;;;11.34;41.76
72428;BME280;60419;48.880;18.036;2023-04-28T08:09:04;99441.59;;;11.98;38.40
72428;BME280;60419;48.880;18.036;2023-04-28T08:11:50;99444.81;;;12.00;37.22
72428;BME280;60419;48.880;18.036;2023-04-28T08:14:35;99454.00;;;12.12;36.92
72428;BME280;60419;48.880;18.036;2023-04-28T08:17:21;99451.84;;;12.37;36.70
72428;BME280;60419;48.880;18.036;2023-04-28T08:20:07;99453.41;;;12.16;37.18
72428;BME280;60419;48.880;18.036;2023-04-28T08:22:52;99452.28;;;11.80;37.03
72428;BME280;60419;48.880;18.036;2023-04-28T08:25:38;99445.06;;;12.71;35.58
72428;BME280;60419;48.880;18.036;2023-04-28T08:28:23;99443.16;;;12.26;36.53
72428;BME280;60419;48.880;18.036;2023-04-28T08:31:09;99434.53;;;12.47;36.58
72428;BME280;60419;48.880;18.036;2023-04-28T08:33:54;99433.75;;;12.46;35.82
72428;BME280;60419;48.880;18.036;2023-04-28T08:36:39;99438.06;;;12.47;36.78
72428;BME280;60419;48.880;18.036;2023-04-28T08:39:25;99431.41;;;12.31;36.09
72428;BME280;60419;48.880;18.036;2023-04-28T08:42:11;99431.84;;;12.47;36.81
72428;BME280;60419;48.880;18.036;2023-04-28T08:44:57;99419.28;;;12.28;36.29
72428;BME280;60419;48.880;18.036;2023-04-28T08:47:48;99419.50;;;12.63;35.53
72428;BME280;60419;48.880;18.036;2023-04-28T08:50:36;99428.53;;;13.12;34.61
72428;BME280;60419;48.880;18.036;2023-04-28T08:53:25;99427.84;;;12.67;36.11
72428;BME280;60419;48.880;18.036;2023-04-28T08:56:11;99426.78;;;13.56;34.85
72428;BME280;60419;48.880;18.036;2023-04-28T08:59:02;99419.06;;;13.41;34.70
72428;BME280;60419;48.880;18.036;2023-04-28T09:01:49;99407.97;;;13.60;34.55
72428;BME280;60419;48.880;18.036;2023-04-28T09:04:34;99425.50;;;13.54;34.65
72428;BME280;60419;48.880;18.036;2023-04-28T09:07:20;99441.03;;;13.31;35.12
72428;BME280;60419;48.880;18.036;2023-04-28T09:10:20;99434.44;;;13.54;35.01
72428;BME280;60419;48.880;18.036;2023-04-28T09:13:06;99439.09;;;13.14;35.67
72428;BME280;60419;48.880;18.036;2023-04-28T09:15:58;99435.56;;;13.53;35.51
72428;BME280;60419;48.880;18.036;2023-04-28T09:18:57;99425.06;;;12.89;35.23
72428;BME280;60419;48.880;18.036;2023-04-28T09:24:39;99421.53;;;13.11;35.08
72428;BME280;60419;48.880;18.036;2023-04-28T09:27:27;99416.19;;;13.37;34.75
72428;BME280;60419;48.880;18.036;2023-04-28T09:30:12;99398.88;;;13.64;33.49
72428;BME280;60419;48.880;18.036;2023-04-28T09:33:04;99403.38;;;13.95;33.22
72428;BME280;60419;48.880;18.036;2023-04-28T09:35:50;99399.69;;;14.35;32.60
72428;BME280;60419;48.880;18.036;2023-04-28T09:38:42;99372.06;;;14.24;32.81
72428;BME280;60419;48.880;18.036;2023-04-28T09:41:54;99390.41;;;14.27;32.28
72428;BME280;60419;48.880;18.036;2023-04-28T09:44:39;99383.72;;;14.24;32.51
72428;BME280;60419;48.880;18.036;2023-04-28T09:47:27;99378.94;;;14.04;31.60
72428;BME280;60419;48.880;18.036;2023-04-28T09:50:14;99373.66;;;13.73;33.09
72428;BME280;60419;48.880;18.036;2023-04-28T09:53:01;99370.72;;;13.52;32.56
72428;BME280;60419;48.880;18.036;2023-04-28T09:55:49;99379.25;;;14.11;31.71
72428;BME280;60419;48.880;18.036;2023-04-28T09:58:39;99376.50;;;13.68;32.84
72428;BME280;60419;48.880;18.036;2023-04-28T10:01:26;99370.00;;;13.69;32.11
72428;BME280;60419;48.880;18.036;2023-04-28T10:04:13;99337.66;;;13.32;33.03
72428;BME280;60419;48.880;18.036;2023-04-28T10:06:59;99363.25;;;13.00;32.66
72428;BME280;60419;48.880;18.036;2023-04-28T10:09:46;99354.28;;;13.39;32.98
72428;BME280;60419;48.880;18.036;2023-04-28T10:12:34;99345.00;;;13.49;33.17
72428;BME280;60419;48.880;18.036;2023-04-28T10:15:22;99327.81;;;13.54;33.44
72428;BME280;60419;48.880;18.036;2023-04-28T10:18:08;99341.38;;;13.54;33.25
72428;BME280;60419;48.880;18.036;2023-04-28T10:20:59;99338.50;;;13.68;33.21
72428;BME280;60419;48.880;18.036;2023-04-28T10:29:47;99321.25;;;14.16;32.83
72428;BME280;60419;48.880;18.036;2023-04-28T10:32:32;99322.38;;;14.06;32.92
72428;BME280;60419;48.880;18.036;2023-04-28T10:38:17;99307.63;;;14.24;32.96
72428;BME280;60419;48.880;18.036;2023-04-28T10:41:31;99294.41;;;14.23;33.33
72428;BME280;60419;48.880;18.036;2023-04-28T10:47:14;99289.50;;;14.54;32.94
72428;BME280;60419;48.880;18.036;2023-04-28T10:50:07;99284.44;;;14.36;33.37
72428;BME280;60419;48.880;18.036;2023-04-28T10:52:53;99279.50;;;14.29;33.20
72428;BME280;60419;48.880;18.036;2023-04-28T10:55:38;99278.19;;;14.44;33.16
72428;BME280;60419;48.880;18.036;2023-04-28T11:04:07;99277.88;;;14.37;33.31
72428;BME280;60419;48.880;18.036;2023-04-28T11:07:10;99272.59;;;14.40;33.94
72428;BME280;60419;48.880;18.036;2023-04-28T11:09:58;99275.06;;;14.63;34.52
72428;BME280;60419;48.880;18.036;2023-04-28T11:16:06;99270.34;;;15.10;32.72
72428;BME280;60419;48.880;18.036;2023-04-28T11:18:58;99269.94;;;15.00;31.70
72428;BME280;60419;48.880;18.036;2023-04-28T11:21:48;99258.97;;;15.17;32.93
72428;BME280;60419;48.880;18.036;2023-04-28T11:24:33;99257.84;;;15.39;32.42
72428;BME280;60419;48.880;18.036;2023-04-28T11:27:31;99259.50;;;15.52;32.08
72428;BME280;60419;48.880;18.036;2023-04-28T11:30:21;99266.59;;;15.24;32.19
72428;BME280;60419;48.880;18.036;2023-04-28T11:33:07;99249.50;;;14.93;32.42
72428;BME280;60419;48.880;18.036;2023-04-28T11:35:53;99256.53;;;15.24;32.26
72428;BME280;60419;48.880;18.036;2023-04-28T11:38:45;99242.88;;;15.03;32.23
72428;BME280;60419;48.880;18.036;2023-04-28T11:41:31;99224.63;;;14.83;33.54
72428;BME280;60419;48.880;18.036;2023-04-28T11:44:19;99232.50;;;14.75;34.11
72428;BME280;60419;48.880;18.036;2023-04-28T11:47:05;99230.78;;;14.92;33.10
72428;BME280;60419;48.880;18.036;2023-04-28T11:49:51;99233.56;;;14.83;32.88
72428;BME280;60419;48.880;18.036;2023-04-28T11:52:47;99227.00;;;15.35;33.07
72428;BME280;60419;48.880;18.036;2023-04-28T11:55:33;99223.72;;;14.61;33.99
72428;BME280;60419;48.880;18.036;2023-04-28T11:58:21;99211.09;;;15.37;33.21
72428;BME280;60419;48.880;18.036;2023-04-28T12:01:09;99202.00;;;15.54;33.27
72428;BME280;60419;48.880;18.036;2023-04-28T12:03:56;99201.69;;;15.13;32.53
72428;BME280;60419;48.880;18.036;2023-04-28T12:06:41;99213.03;;;14.56;32.93
72428;BME280;60419;48.880;18.036;2023-04-28T12:09:26;99193.31;;;14.97;31.87
72428;BME280;60419;48.880;18.036;2023-04-28T12:12:13;99188.81;;;15.23;32.34
72428;BME280;60419;48.880;18.036;2023-04-28T12:15:04;99183.06;;;15.24;32.67
72428;BME280;60419;48.880;18.036;2023-04-28T12:17:50;99166.41;;;15.59;33.02
72428;BME280;60419;48.880;18.036;2023-04-28T12:20:36;99180.84;;;15.38;32.32
72428;BME280;60419;48.880;18.036;2023-04-28T12:23:32;99179.50;;;15.24;32.39
72428;BME280;60419;48.880;18.036;2023-04-28T12:26:23;99173.88;;;15.08;32.59
72428;BME280;60419;48.880;18.036;2023-04-28T12:29:36;99171.88;;;14.75;32.61
72428;BME280;60419;48.880;18.036;2023-04-28T12:32:40;99169.31;;;15.00;32.80
72428;BME280;60419;48.880;18.036;2023-04-28T12:35:28;99176.88;;;14.94;33.22
72428;BME280;60419;48.880;18.036;2023-04-28T12:38:13;99171.56;;;14.97;32.45
72428;BME280;60419;48.880;18.036;2023-04-28T12:41:00;99175.53;;;14.49;33.23
72428;BME280;60419;48.880;18.036;2023-04-28T12:43:45;99176.72;;;14.61;33.16
72428;BME280;60419;48.880;18.036;2023-04-28T12:46:31;99192.88;;;14.95;33.43
72428;BME280;60419;48.880;18.036;2023-04-28T12:49:17;99179.00;;;15.09;32.86
72428;BME280;60419;48.880;18.036;2023-04-28T12:52:04;99185.81;;;14.94;33.21
72428;BME280;60419;48.880;18.036;2023-04-28T12:54:49;99176.13;;;15.06;33.23
72428;BME280;60419;48.880;18.036;2023-04-28T12:57:35;99157.81;;;14.73;33.89
72428;BME280;60419;48.880;18.036;2023-04-28T13:00:20;99158.31;;;15.50;33.41
72428;BME280;60419;48.880;18.036;2023-04-28T13:03:07;99152.47;;;15.39;33.11
72428;BME280;60419;48.880;18.036;2023-04-28T13:05:53;99143.53;;;15.39;33.79
72428;BME280;60419;48.880;18.036;2023-04-28T13:08:38;99143.94;;;15.62;34.07
72428;BME280;60419;48.880;18.036;2023-04-28T13:11:23;99148.66;;;15.40;34.53
72428;BME280;60419;48.880;18.036;2023-04-28T13:14:11;99145.78;;;15.70;34.49
72428;BME280;60419;48.880;18.036;2023-04-28T13:16:56;99144.25;;;15.60;33.71
72428;BME280;60419;48.880;18.036;2023-04-28T13:19:42;99144.06;;;15.66;34.13
72428;BME280;60419;48.880;18.036;2023-04-28T13:22:27;99143.81;;;15.25;34.53
72428;BME280;60419;48.880;18.036;2023-04-28T13:25:13;99132.97;;;15.04;34.34
72428;BME280;60419;48.880;18.036;2023-04-28T13:27:59;99114.25;;;15.36;34.24
72428;BME280;60419;48.880;18.036;2023-04-28T13:30:44;99101.41;;;14.70;34.95
72428;BME280;60419;48.880;18.036;2023-04-28T13:33:30;99107.50;;;14.88;34.85
72428;BME280;60419;48.880;18.036;2023-04-28T13:36:15;99115.09;;;14.94;35.60
72428;BME280;60419;48.880;18.036;2023-04-28T13:39:01;99129.69;;;15.11;35.07
72428;BME280;60419;48.880;18.036;2023-04-28T13:41:47;99130.63;;;15.15;35.04
72428;BME280;60419;48.880;18.036;2023-04-28T13:44:33;99120.63;;;14.86;35.63
72428;BME280;60419;48.880;18.036;2023-04-28T13:47:19;99135.88;;;15.20;35.28
72428;BME280;60419;48.880;18.036;2023-04-28T13:50:04;99143.63;;;15.09;35.22
72428;BME280;60419;48.880;18.036;2023-04-28T13:52:50;99139.06;;;15.22;34.92
72428;BME280;60419;48.880;18.036;2023-04-28T13:55:36;99109.31;;;15.17;34.48
72428;BME280;60419;48.880;18.036;2023-04-28T13:58:28;99137.69;;;15.28;34.41
72428;BME280;60419;48.880;18.036;2023-04-28T14:01:14;99125.06;;;15.11;34.26
72428;BME280;60419;48.880;18.036;2023-04-28T14:03:59;99115.03;;;14.82;35.37
72428;BME280;60419;48.880;18.036;2023-04-28T14:06:45;99114.84;;;14.87;35.42
72428;BME280;60419;48.880;18.036;2023-04-28T14:09:30;99114.44;;;14.77;35.25
72428;BME280;60419;48.880;18.036;2023-04-28T14:12:16;99105.56;;;14.38;35.48
72428;BME280;60419;48.880;18.036;2023-04-28T14:15:02;99092.44;;;14.40;35.67
72428;BME280;60419;48.880;18.036;2023-04-28T14:17:47;99107.47;;;14.67;35.32
72428;BME280;60419;48.880;18.036;2023-04-28T14:20:32;99095.97;;;14.61;35.84
72428;BME280;60419;48.880;18.036;2023-04-28T14:23:18;99098.38;;;14.63;35.87
72428;BME280;60419;48.880;18.036;2023-04-28T14:26:03;99082.66;;;15.10;34.55
72428;BME280;60419;48.880;18.036;2023-04-28T14:28:49;99098.97;;;14.68;35.88
72428;BME280;60419;48.880;18.036;2023-04-28T14:31:34;99101.69;;;14.68;36.39
72428;BME280;60419;48.880;18.036;2023-04-28T14:34:19;99099.22;;;15.17;35.17
72428;BME280;60419;48.880;18.036;2023-04-28T14:37:05;99088.25;;;14.93;35.65
72428;BME280;60419;48.880;18.036;2023-04-28T14:39:50;99087.44;;;14.71;35.85
72428;BME280;60419;48.880;18.036;2023-04-28T14:42:36;99102.97;;;14.71;35.93
72428;BME280;60419;48.880;18.036;2023-04-28T14:45:21;99080.59;;;14.65;36.01
72428;BME280;60419;48.880;18.036;2023-04-28T14:48:07;99091.94;;;14.67;36.43
72428;BME280;60419;48.880;18.036;2023-04-28T14:50:54;99078.03;;;13.88;37.44
72428;BME280;60419;48.880;18.036;2023-04-28T14:53:39;99081.97;;;14.29;37.24
72428;BME280;60419;48.880;18.036;2023-04-28T14:56:26;99070.50;;;14.24;36.68
72428;BME280;60419;48.880;18.036;2023-04-28T14:59:11;99077.00;;;14.52;36.16